createdAt,value
2023-05-19T00:02:22.572Z,102830.66
2023-05-19T00:04:49.696Z,102847.31
2023-05-19T00:07:20.201Z,102837.28
2023-05-19T00:09:47.180Z,102840.28
2023-05-19T00:12:14.421Z,102842.56
2023-05-19T00:14:41.657Z,102848.44
2023-05-19T00:17:09.106Z,102837.56
2023-05-19T00:19:35.781Z,102819.41
2023-05-19T00:22:02.645Z,102824.06
2023-05-19T00:24:31.521Z,102839.94
2023-05-19T00:26:58.231Z,102829.31
2023-05-19T00:29:25.022Z,102794.19
2023-05-19T00:31:51.796Z,102828.00
2023-05-19T00:34:21.047Z,102822.38
2023-05-19T00:36:50.772Z,102836.50
2023-05-19T00:39:17.468Z,102836.41
2023-05-19T00:41:44.307Z,102839.66
2023-05-19T00:44:11.046Z,102826.91
2023-05-19T00:46:38.182Z,102851.75
2023-05-19T00:49:04.927Z,102846.38
2023-05-19T00:51:32.177Z,102849.06
2023-05-19T00:53:59.352Z,102855.34
2023-05-19T00:56:27.925Z,102849.13
2023-05-19T00:58:55.204Z,102857.88
2023-05-19T01:01:22.474Z,102849.69
2023-05-19T01:03:49.643Z,102840.78
2023-05-19T01:06:19.256Z,102847.25
2023-05-19T01:08:48.362Z,102844.56
2023-05-19T01:11:18.010Z,102838.25
2023-05-19T01:13:44.782Z,102783.25
2023-05-19T01:16:17.555Z,102842.09
2023-05-19T01:19:19.856Z,102832.34
2023-05-19T01:22:23.861Z,102844.44
2023-05-19T01:25:18.148Z,102832.75
2023-05-19T01:28:05.050Z,102845.53
2023-05-19T01:30:43.485Z,102832.25
2023-05-19T01:33:15.905Z,102827.63
2023-05-19T01:35:44.671Z,102835.56
2023-05-19T01:38:15.608Z,102818.66
2023-05-19T01:40:44.101Z,102823.44
2023-05-19T01:43:14.068Z,102824.31
2023-05-19T01:45:42.022Z,102813.03
2023-05-19T01:48:11.098Z,102822.69
2023-05-19T01:50:40.782Z,102823.44
2023-05-19T01:53:07.806Z,102825.94
2023-05-19T01:55:45.709Z,102825.75
2023-05-19T01:58:33.606Z,102831.00
2023-05-19T02:01:00.209Z,102832.72
2023-05-19T02:03:33.074Z,102810.38
2023-05-19T02:06:06.910Z,102824.03
2023-05-19T02:08:51.793Z,102779.06
2023-05-19T02:11:27.563Z,102816.94
2023-05-19T02:13:56.961Z,102824.97
2023-05-19T02:16:32.433Z,102822.34
2023-05-19T02:18:59.646Z,102812.72
2023-05-19T02:21:28.944Z,102814.25
2023-05-19T02:23:55.641Z,102798.25
2023-05-19T02:26:24.668Z,102815.31
2023-05-19T02:28:51.271Z,102795.63
2023-05-19T02:31:18.011Z,102783.47
2023-05-19T02:33:44.741Z,102816.72
2023-05-19T02:36:11.575Z,102819.50
2023-05-19T02:38:40.569Z,102824.84
2023-05-19T02:41:07.224Z,102798.09
2023-05-19T02:43:36.293Z,102825.00
2023-05-19T02:46:03.192Z,102821.38
2023-05-19T02:48:32.200Z,102812.47
2023-05-19T02:50:58.900Z,102824.00
2023-05-19T02:53:25.704Z,102821.31
2023-05-19T02:55:55.012Z,102831.94
2023-05-19T02:58:23.913Z,102832.84
2023-05-19T03:00:51.525Z,102828.25
2023-05-19T03:03:18.268Z,102827.78
2023-05-19T03:05:47.801Z,102822.47
2023-05-19T03:08:17.006Z,102824.91
2023-05-19T03:10:43.723Z,102817.00
2023-05-19T03:13:10.427Z,102821.25
2023-05-19T03:15:37.128Z,102823.66
2023-05-19T03:18:09.031Z,102819.88
2023-05-19T03:20:35.690Z,102814.53
2023-05-19T03:23:02.298Z,102809.91
2023-05-19T03:25:30.082Z,102823.25
2023-05-19T03:27:56.825Z,102807.75
2023-05-19T03:30:23.502Z,102823.44
2023-05-19T03:32:52.897Z,102810.09
2023-05-19T03:35:19.605Z,102801.09
2023-05-19T03:37:46.234Z,102819.81
2023-05-19T03:40:13.502Z,102818.75
2023-05-19T03:42:43.102Z,102817.69
2023-05-19T03:45:12.098Z,102792.31
2023-05-19T03:47:38.810Z,102809.56
2023-05-19T03:50:09.878Z,102815.59
2023-05-19T03:52:36.566Z,102818.06
2023-05-19T03:55:03.291Z,102820.56
2023-05-19T03:57:32.233Z,102794.69
2023-05-19T03:59:58.914Z,102824.91
2023-05-19T04:02:25.717Z,102819.78
2023-05-19T04:04:52.567Z,102820.56
2023-05-19T04:07:19.584Z,102816.97
2023-05-19T04:09:46.403Z,102813.38
2023-05-19T04:12:15.344Z,102822.19
2023-05-19T04:14:42.045Z,102803.50
2023-05-19T04:17:11.435Z,102790.91
2023-05-19T04:19:38.094Z,102820.47
2023-05-19T04:22:07.311Z,102818.59
2023-05-19T04:24:33.988Z,102801.69
2023-05-19T04:27:02.682Z,102825.78
2023-05-19T04:29:29.648Z,102823.28
2023-05-19T04:31:58.740Z,102806.34
2023-05-19T04:34:25.411Z,102818.50
2023-05-19T04:36:53.454Z,102827.06
2023-05-19T04:39:21.552Z,102828.84
2023-05-19T04:41:48.358Z,102832.44
2023-05-19T04:44:18.489Z,102834.25
2023-05-19T04:46:47.601Z,102833.41
2023-05-19T04:49:16.587Z,102832.63
2023-05-19T04:51:46.349Z,102823.81
2023-05-19T04:54:13.036Z,102826.59
2023-05-19T04:56:40.522Z,102829.13
2023-05-19T04:59:07.213Z,102811.81
2023-05-19T05:01:33.987Z,102821.06
2023-05-19T05:04:03.122Z,102818.44
2023-05-19T05:06:29.819Z,102821.25
2023-05-19T05:08:59.997Z,102820.41
2023-05-19T05:11:27.059Z,102778.56
2023-05-19T05:13:54.046Z,102796.75
2023-05-19T05:16:21.302Z,102818.31
2023-05-19T05:18:48.253Z,102783.69
2023-05-19T05:21:17.740Z,102819.31
2023-05-19T05:23:44.642Z,102816.41
2023-05-19T05:26:20.025Z,102818.44
2023-05-19T05:28:46.737Z,102819.78
2023-05-19T05:31:13.396Z,102813.78
2023-05-19T05:33:40.648Z,102803.03
2023-05-19T05:36:07.860Z,102803.69
2023-05-19T05:38:36.827Z,102798.03
2023-05-19T05:41:03.665Z,102801.28
2023-05-19T05:43:30.822Z,102794.00
2023-05-19T05:45:57.748Z,102792.81
2023-05-19T05:48:24.693Z,102754.00
2023-05-19T05:50:52.967Z,102786.59
2023-05-19T05:53:20.907Z,102807.03
2023-05-19T05:55:48.261Z,102794.88
2023-05-19T05:58:17.095Z,102805.78
2023-05-19T06:00:43.882Z,102789.03
2023-05-19T06:03:11.367Z,102785.06
2023-05-19T06:05:38.700Z,102797.25
2023-05-19T06:08:05.827Z,102806.69
2023-05-19T06:10:33.421Z,102809.91
2023-05-19T06:13:00.315Z,102806.91
2023-05-19T06:15:27.139Z,102788.28
2023-05-19T06:17:54.847Z,102801.84
2023-05-19T06:20:23.951Z,102797.44
2023-05-19T06:22:50.899Z,102793.31
2023-05-19T06:25:17.757Z,102776.53
2023-05-19T06:27:44.445Z,102775.47
2023-05-19T06:30:11.601Z,102773.34
2023-05-19T06:32:40.689Z,102783.56
2023-05-19T06:35:07.837Z,102757.81
2023-05-19T06:37:34.551Z,102785.31
2023-05-19T06:40:01.857Z,102805.25
2023-05-19T06:42:28.516Z,102805.25
2023-05-19T06:44:55.935Z,102789.34
2023-05-19T06:47:22.610Z,102761.88
2023-05-19T06:49:55.673Z,102759.19
2023-05-19T06:52:25.303Z,102769.13
2023-05-19T06:54:51.984Z,102773.50
2023-05-19T06:57:18.749Z,102781.66
2023-05-19T06:59:46.813Z,102780.69
2023-05-19T07:02:13.628Z,102795.75
2023-05-19T07:04:41.127Z,102792.41
2023-05-19T07:07:07.846Z,102791.34
2023-05-19T07:09:35.129Z,102805.50
2023-05-19T07:12:01.927Z,102804.28
2023-05-19T07:14:28.760Z,102813.00
2023-05-19T07:16:58.002Z,102804.81
2023-05-19T07:19:24.784Z,102806.66
2023-05-19T07:21:51.701Z,102809.63
2023-05-19T07:24:21.668Z,102787.91
2023-05-19T07:26:53.084Z,102813.66
2023-05-19T07:29:22.388Z,102822.19
2023-05-19T07:31:54.152Z,102825.81
2023-05-19T07:34:22.077Z,102823.72
2023-05-19T07:36:48.769Z,102831.13
2023-05-19T07:39:15.678Z,102814.28
2023-05-19T07:41:42.335Z,102817.91
2023-05-19T07:44:10.460Z,102808.19
2023-05-19T07:46:38.078Z,102823.28
2023-05-19T07:49:04.966Z,102819.16
2023-05-19T07:51:31.889Z,102821.00
2023-05-19T07:53:58.571Z,102794.19
2023-05-19T07:56:25.259Z,102808.13
2023-05-19T07:58:51.944Z,102812.88
2023-05-19T08:01:18.589Z,102811.25
2023-05-19T08:03:47.584Z,102783.75
2023-05-19T08:06:14.368Z,102809.50
2023-05-19T08:08:48.343Z,102809.53
2023-05-19T08:11:15.084Z,102813.03
2023-05-19T08:13:41.817Z,102809.53
2023-05-19T08:16:10.938Z,102805.94
2023-05-19T08:18:37.666Z,102802.34
2023-05-19T08:21:04.718Z,102799.66
2023-05-19T08:23:32.085Z,102808.56
2023-05-19T08:25:58.879Z,102813.81
2023-05-19T08:28:27.871Z,102807.50
2023-05-19T08:30:54.713Z,102801.16
2023-05-19T08:33:24.270Z,102796.47
2023-05-19T08:35:51.124Z,102794.44
2023-05-19T08:38:17.736Z,102803.97
2023-05-19T08:40:48.447Z,102805.84
2023-05-19T08:43:17.666Z,102789.97
2023-05-19T08:45:48.392Z,102802.72
2023-05-19T08:48:18.202Z,102793.28
2023-05-19T08:50:53.208Z,102789.78
2023-05-19T08:53:39.795Z,102790.75
2023-05-19T08:56:20.196Z,102813.06
2023-05-19T08:58:49.451Z,102800.63
2023-05-19T09:01:19.198Z,102807.72
2023-05-19T09:03:49.889Z,102790.84
2023-05-19T09:06:17.330Z,102800.63
2023-05-19T09:08:47.311Z,102803.16
2023-05-19T09:11:16.389Z,102789.63
2023-05-19T09:13:43.885Z,102805.44
2023-05-19T09:16:13.672Z,102793.59
2023-05-19T09:18:43.879Z,102809.31
2023-05-19T09:21:11.353Z,102809.09
2023-05-19T09:23:38.124Z,102799.13
2023-05-19T09:26:07.956Z,102801.56
2023-05-19T09:28:38.587Z,102802.44
2023-05-19T09:31:06.235Z,102775.78
2023-05-19T09:33:35.822Z,102792.84
2023-05-19T09:36:05.587Z,102793.53
2023-05-19T09:38:32.736Z,102793.34
2023-05-19T09:41:01.270Z,102786.97
2023-05-19T09:43:34.572Z,102776.97
2023-05-19T09:46:08.113Z,102797.28
2023-05-19T09:48:36.565Z,102773.22
2023-05-19T09:51:06.505Z,102765.81
2023-05-19T09:53:34.650Z,102771.06
2023-05-19T09:56:02.321Z,102775.34
2023-05-19T09:58:37.052Z,102785.75
2023-05-19T10:01:05.736Z,102781.09
2023-05-19T10:03:34.164Z,102767.25
2023-05-19T10:06:10.274Z,102782.88
2023-05-19T10:08:37.809Z,102785.34
2023-05-19T10:11:06.298Z,102784.31
2023-05-19T10:13:37.689Z,102781.34
2023-05-19T10:16:05.881Z,102751.75
2023-05-19T10:18:36.856Z,102761.41
2023-05-19T10:21:06.422Z,102768.47
2023-05-19T10:23:35.374Z,102772.22
2023-05-19T10:26:05.198Z,102762.06
2023-05-19T10:28:41.136Z,102750.09
2023-05-19T10:31:13.103Z,102762.06
2023-05-19T10:33:57.018Z,102780.06
2023-05-19T10:36:32.886Z,102777.91
2023-05-19T10:38:59.495Z,102788.78
2023-05-19T10:42:00.452Z,102789.91
2023-05-19T10:44:42.369Z,102783.91
2023-05-19T10:47:12.141Z,102780.53
2023-05-19T10:49:41.747Z,102785.19
2023-05-19T10:52:23.215Z,102779.16
2023-05-19T10:54:51.527Z,102775.66
2023-05-19T10:57:19.913Z,102771.13
2023-05-19T10:59:50.029Z,102758.63
2023-05-19T11:02:56.422Z,102768.44
2023-05-19T11:05:29.887Z,102765.00
2023-05-19T11:08:08.041Z,102758.03
2023-05-19T11:10:34.929Z,102762.44
2023-05-19T11:13:01.716Z,102760.66
2023-05-19T11:15:28.993Z,102767.56
2023-05-19T11:17:56.020Z,102767.28
2023-05-19T11:20:30.035Z,102752.84
2023-05-19T11:23:09.905Z,102758.69
2023-05-19T11:25:47.942Z,102748.84
2023-05-19T11:28:20.108Z,102745.97
2023-05-19T11:30:50.915Z,102743.97
2023-05-19T11:33:27.190Z,102738.75
2023-05-19T11:35:58.603Z,102737.28
2023-05-19T11:38:30.164Z,102731.28
2023-05-19T11:40:57.276Z,102729.75
2023-05-19T11:43:25.339Z,102726.38
2023-05-19T11:45:53.409Z,102717.56
2023-05-19T11:48:24.860Z,102730.22
2023-05-19T11:50:54.417Z,102725.69
2023-05-19T11:53:21.316Z,102725.59
2023-05-19T11:55:49.396Z,102702.34
2023-05-19T11:58:17.162Z,102697.78
2023-05-19T12:00:47.666Z,102719.69
2023-05-19T12:03:15.165Z,102709.59
2023-05-19T12:05:46.872Z,102705.03
2023-05-19T12:08:14.182Z,102699.59
2023-05-19T12:10:41.261Z,102684.34
2023-05-19T12:13:11.120Z,102699.31
2023-05-19T12:15:40.451Z,102697.41
2023-05-19T12:18:09.893Z,102691.81
2023-05-19T12:20:37.400Z,102678.66
2023-05-19T12:23:04.563Z,102695.03
2023-05-19T12:25:32.236Z,102695.44
2023-05-19T12:28:00.470Z,102688.19
2023-05-19T12:30:34.747Z,102696.06
2023-05-19T12:33:02.804Z,102692.13
2023-05-19T12:35:32.186Z,102705.97
2023-05-19T12:38:03.763Z,102704.91
2023-05-19T12:40:30.769Z,102697.69
2023-05-19T12:42:59.336Z,102702.94
2023-05-19T12:45:28.325Z,102655.56
2023-05-19T12:47:55.513Z,102674.44
2023-05-19T12:50:22.307Z,102702.94
2023-05-19T12:52:53.551Z,102698.34
2023-05-19T12:55:23.290Z,102642.84
2023-05-19T12:57:52.009Z,102687.06
2023-05-19T13:00:21.166Z,102699.88
2023-05-19T13:03:04.521Z,102700.44
2023-05-19T13:05:34.344Z,102697.44
2023-05-19T13:08:09.130Z,102704.25
2023-05-19T13:10:38.139Z,102675.78
2023-05-19T13:13:10.767Z,102689.25
2023-05-19T13:15:40.516Z,102699.25
2023-05-19T13:18:09.144Z,102688.34
2023-05-19T13:20:43.224Z,102688.78
2023-05-19T13:23:11.356Z,102701.25
2023-05-19T13:25:38.133Z,102704.81
2023-05-19T13:28:06.027Z,102704.66
2023-05-19T13:30:37.060Z,102710.72
2023-05-19T13:33:04.149Z,102704.66
2023-05-19T13:35:36.949Z,102676.00
2023-05-19T13:38:11.696Z,102712.16
2023-05-19T13:40:43.208Z,102704.75
2023-05-19T13:43:10.162Z,102708.88
2023-05-19T13:45:42.244Z,102694.66
2023-05-19T13:48:12.267Z,102699.16
2023-05-19T13:50:41.082Z,102709.59
2023-05-19T13:53:08.313Z,102710.47
2023-05-19T13:55:35.202Z,102710.38
2023-05-19T13:58:06.582Z,102690.81
2023-05-19T14:00:33.594Z,102702.47
2023-05-19T14:03:00.620Z,102707.72
2023-05-19T14:05:32.687Z,102702.47
2023-05-19T14:08:01.194Z,102691.03
2023-05-19T14:10:30.558Z,102697.00
2023-05-19T14:15:34.493Z,102679.41
2023-05-19T14:18:01.380Z,102705.41
2023-05-19T14:20:29.323Z,102696.75
2023-05-19T14:22:58.546Z,102696.31
2023-05-19T14:25:25.212Z,102682.31
2023-05-19T14:27:51.912Z,102704.25
2023-05-19T14:30:18.696Z,102690.59
2023-05-19T14:32:47.797Z,102689.13
2023-05-19T14:35:16.751Z,102685.75
2023-05-19T14:37:45.692Z,102695.91
2023-05-19T14:40:15.074Z,102700.41
2023-05-19T14:42:41.823Z,102695.16
2023-05-19T14:45:09.119Z,102691.47
2023-05-19T14:47:38.830Z,102697.91
2023-05-19T14:50:06.100Z,102686.63
2023-05-19T14:52:32.804Z,102695.56
2023-05-19T14:54:59.670Z,102691.97
2023-05-19T14:57:26.394Z,102695.44
2023-05-19T14:59:53.085Z,102681.03
2023-05-19T15:02:22.114Z,102689.88
2023-05-19T15:04:51.027Z,102706.56
2023-05-19T15:07:20.851Z,102703.81
2023-05-19T15:09:47.506Z,102707.31
2023-05-19T15:12:14.160Z,102703.03
2023-05-19T15:14:40.873Z,102697.84
2023-05-19T15:17:07.687Z,102704.19
2023-05-19T15:19:36.985Z,102702.59
2023-05-19T15:22:03.707Z,102700.06
2023-05-19T15:24:30.460Z,102694.00
2023-05-19T15:26:59.314Z,102699.50
2023-05-19T15:29:26.632Z,102690.72
2023-05-19T15:31:53.399Z,102668.53
2023-05-19T15:34:20.957Z,102698.03
2023-05-19T15:36:47.715Z,102690.06
2023-05-19T15:39:14.514Z,102686.56
2023-05-19T15:41:41.244Z,102690.16
2023-05-19T15:44:08.184Z,102684.06
2023-05-19T15:46:37.345Z,102677.00
2023-05-19T15:49:04.614Z,102645.09
2023-05-19T15:51:31.709Z,102680.88
2023-05-19T15:54:03.217Z,102665.19
2023-05-19T15:56:29.925Z,102660.91
2023-05-19T15:58:56.680Z,102667.19
2023-05-19T16:01:26.540Z,102665.50
2023-05-19T16:03:53.740Z,102659.31
2023-05-19T16:06:20.828Z,102663.50
2023-05-19T16:08:47.561Z,102659.84
2023-05-19T16:11:14.627Z,102661.44
2023-05-19T16:13:41.326Z,102661.28
2023-05-19T16:16:08.144Z,102655.78
2023-05-19T16:18:34.839Z,102662.84
2023-05-19T16:21:01.571Z,102658.31
2023-05-19T16:23:28.342Z,102660.78
2023-05-19T16:25:57.680Z,102664.00
2023-05-19T16:28:28.042Z,102670.88
2023-05-19T16:30:59.406Z,102659.91
2023-05-19T16:33:28.590Z,102660.56
2023-05-19T16:35:56.198Z,102668.13
2023-05-19T16:38:22.943Z,102670.56
2023-05-19T16:40:52.095Z,102656.13
2023-05-19T16:43:18.830Z,102666.34
2023-05-19T16:45:50.247Z,102657.19
2023-05-19T16:48:19.528Z,102660.53
2023-05-19T16:50:48.815Z,102650.34
2023-05-19T16:53:15.578Z,102663.59
2023-05-19T16:55:42.330Z,102658.91
2023-05-19T16:58:10.778Z,102639.19
2023-05-19T17:00:38.061Z,102654.34
2023-05-19T17:03:07.097Z,102653.38
2023-05-19T17:05:34.181Z,102659.63
2023-05-19T17:08:03.877Z,102657.03
2023-05-19T17:10:33.549Z,102640.84
2023-05-19T17:13:02.692Z,102657.75
2023-05-19T17:15:29.326Z,102658.75
2023-05-19T17:17:56.059Z,102608.53
2023-05-19T17:20:25.236Z,102651.63
2023-05-19T17:22:54.410Z,102656.94
2023-05-19T17:25:21.072Z,102650.59
2023-05-19T17:27:47.827Z,102661.06
2023-05-19T17:30:16.671Z,102650.25
2023-05-19T17:32:47.996Z,102655.31
2023-05-19T17:35:20.795Z,102658.66
2023-05-19T17:37:49.707Z,102668.31
2023-05-19T17:40:16.591Z,102658.47
2023-05-19T17:42:43.530Z,102662.81
2023-05-19T17:45:12.441Z,102664.63
2023-05-19T17:47:39.222Z,102668.16
2023-05-19T17:50:06.464Z,102670.84
2023-05-19T17:52:35.811Z,102671.69
2023-05-19T17:55:05.834Z,102674.28
2023-05-19T17:57:40.355Z,102665.44
2023-05-19T18:00:07.735Z,102668.03
2023-05-19T18:02:39.940Z,102659.97
2023-05-19T18:05:07.324Z,102666.16
2023-05-19T18:07:39.140Z,102647.38
2023-05-19T18:10:06.702Z,102668.72
2023-05-19T18:12:38.320Z,102647.31
2023-05-19T18:15:10.987Z,102668.72
2023-05-19T18:17:37.820Z,102665.88
2023-05-19T18:20:05.402Z,102668.56
2023-05-19T18:22:32.273Z,102664.94
2023-05-19T18:24:58.961Z,102669.22
2023-05-19T18:27:26.826Z,102669.28
2023-05-19T18:29:53.531Z,102662.19
2023-05-19T18:32:23.175Z,102671.66
2023-05-19T18:34:52.417Z,102674.16
2023-05-19T18:37:19.122Z,102678.44
2023-05-19T18:39:48.773Z,102674.56
2023-05-19T18:42:17.885Z,102675.47
2023-05-19T18:44:47.555Z,102691.38
2023-05-19T18:47:19.477Z,102685.03
2023-05-19T18:49:46.118Z,102690.16
2023-05-19T18:52:12.782Z,102690.09
2023-05-19T18:54:40.686Z,102698.06
2023-05-19T18:57:07.396Z,102689.22
2023-05-19T18:59:34.302Z,102685.72
2023-05-19T19:02:01.039Z,102698.00
2023-05-19T19:04:30.744Z,102682.00
2023-05-19T19:06:57.529Z,102686.53
2023-05-19T19:09:24.451Z,102654.44
2023-05-19T19:11:51.132Z,102657.00
2023-05-19T19:14:19.361Z,102683.78
2023-05-19T19:16:46.061Z,102676.63
2023-05-19T19:19:12.796Z,102656.97
2023-05-19T19:21:41.966Z,102668.28
2023-05-19T19:24:08.673Z,102682.38
2023-05-19T19:26:35.462Z,102679.59
2023-05-19T19:29:02.154Z,102685.41
2023-05-19T19:31:28.887Z,102681.75
2023-05-19T19:34:03.005Z,102680.63
2023-05-19T19:36:29.813Z,102657.25
2023-05-19T19:38:56.552Z,102693.56
2023-05-19T19:41:23.269Z,102646.66
2023-05-19T19:43:51.045Z,102701.97
2023-05-19T19:46:17.767Z,102705.13
2023-05-19T19:48:46.832Z,102704.06
2023-05-19T19:51:15.721Z,102688.44
2023-05-19T19:53:42.360Z,102709.53
2023-05-19T19:56:09.048Z,102711.75
2023-05-19T19:58:35.732Z,102716.72
2023-05-19T20:01:03.777Z,102717.31
2023-05-19T20:03:31.787Z,102701.72
2023-05-19T20:06:03.742Z,102713.09
2023-05-19T20:08:30.750Z,102712.81
2023-05-19T20:10:57.344Z,102723.06
2023-05-19T20:13:24.483Z,102724.47
2023-05-19T20:15:51.281Z,102730.13
2023-05-19T20:18:20.326Z,102724.69
2023-05-19T20:20:46.978Z,102736.75
2023-05-19T20:23:14.342Z,102740.03
2023-05-19T20:25:58.533Z,102751.16
2023-05-19T20:28:32.373Z,102763.13
2023-05-19T20:31:03.900Z,102758.63
2023-05-19T20:33:31.763Z,102762.78
2023-05-19T20:36:00.917Z,102758.31
2023-05-19T20:38:27.707Z,102754.66
2023-05-19T20:40:54.704Z,102759.09
2023-05-19T20:43:21.527Z,102759.81
2023-05-19T20:45:53.579Z,102758.72
2023-05-19T20:48:20.718Z,102761.25
2023-05-19T20:50:47.730Z,102733.34
2023-05-19T20:53:14.360Z,102751.22
2023-05-19T20:55:41.349Z,102757.28
2023-05-19T20:58:08.033Z,102758.75
2023-05-19T21:00:35.002Z,102762.13
2023-05-19T21:03:01.976Z,102763.59
2023-05-19T21:05:29.091Z,102759.59
2023-05-19T21:07:55.965Z,102772.09
2023-05-19T21:10:25.775Z,102774.41
2023-05-19T21:12:52.417Z,102763.38
2023-05-19T21:15:19.261Z,102780.00
2023-05-19T21:17:48.477Z,102761.75
2023-05-19T21:20:15.205Z,102786.75
2023-05-19T21:22:41.852Z,102779.41
2023-05-19T21:25:08.892Z,102781.16
2023-05-19T21:27:36.405Z,102786.22
2023-05-19T21:30:03.450Z,102778.19
2023-05-19T21:32:33.154Z,102782.44
2023-05-19T21:35:00.362Z,102756.09
2023-05-19T21:37:27.032Z,102752.56
2023-05-19T21:39:53.716Z,102776.66
2023-05-19T21:42:20.444Z,102785.25
2023-05-19T21:44:49.675Z,102778.78
2023-05-19T21:47:16.370Z,102775.09
2023-05-19T21:49:43.214Z,102777.66
2023-05-19T21:52:10.400Z,102778.41
2023-05-19T21:54:43.384Z,102775.53
2023-05-19T21:57:11.282Z,102786.03
2023-05-19T21:59:38.528Z,102786.69
2023-05-19T22:02:05.999Z,102772.56
2023-05-19T22:04:32.854Z,102768.00
2023-05-19T22:06:59.584Z,102774.41
2023-05-19T22:09:26.365Z,102752.75
2023-05-19T22:11:53.068Z,102783.19
2023-05-19T22:14:21.885Z,102779.63
2023-05-19T22:16:48.805Z,102779.38
2023-05-19T22:19:15.851Z,102780.13
2023-05-19T22:21:42.913Z,102779.00
2023-05-19T22:24:09.722Z,102789.38
2023-05-19T22:26:36.517Z,102785.44
2023-05-19T22:29:05.651Z,102744.63
2023-05-19T22:31:32.548Z,102790.03
2023-05-19T22:33:59.251Z,102799.28
2023-05-19T22:36:26.040Z,102800.72
2023-05-19T22:38:52.711Z,102795.13
2023-05-19T22:41:19.375Z,102803.81
2023-05-19T22:43:48.259Z,102802.69
2023-05-19T22:46:17.124Z,102808.50
2023-05-19T22:48:43.829Z,102805.63
2023-05-19T22:51:10.822Z,102805.22
2023-05-19T22:53:37.470Z,102807.59
2023-05-19T22:56:06.485Z,102809.94
2023-05-19T22:58:33.135Z,102810.34
2023-05-19T23:00:59.909Z,102819.69
2023-05-19T23:03:26.645Z,102816.72
2023-05-19T23:05:55.608Z,102808.47
2023-05-19T23:08:24.511Z,102818.75
2023-05-19T23:10:54.180Z,102819.50
2023-05-19T23:13:21.015Z,102816.47
2023-05-19T23:15:48.772Z,102819.88
2023-05-19T23:18:15.740Z,102825.66
2023-05-19T23:20:42.676Z,102821.75
2023-05-19T23:23:09.580Z,102809.34
2023-05-19T23:25:36.450Z,102814.28
2023-05-19T23:28:03.201Z,102814.06
2023-05-19T23:30:33.069Z,102815.66
2023-05-19T23:32:59.920Z,102810.97
2023-05-19T23:35:26.686Z,102800.56
2023-05-19T23:37:53.403Z,102817.31
2023-05-19T23:40:20.212Z,102814.28
2023-05-19T23:42:49.209Z,102810.41
2023-05-19T23:45:15.902Z,102825.38
2023-05-19T23:47:42.629Z,102817.34
2023-05-19T23:53:57.573Z,102823.66
2023-05-19T23:56:24.217Z,102815.47
2023-05-19T23:58:53.836Z,102808.09
